sensor_id;sensor_type;location;lat;lon;timestamp;pressure;altitude;pressure_sealevel;temperature;humidity
50349;BME280;36250;48.740;22.174;2023-02-13T00:01:40;102660.28;;;-1.17;70.80
50349;BME280;36250;48.740;22.174;2023-02-13T00:04:05;102652.88;;;-1.14;70.47
50349;BME280;36250;48.740;22.174;2023-02-13T00:06:31;102658.19;;;-1.25;69.51
50349;BME280;36250;48.740;22.174;2023-02-13T00:08:56;102659.31;;;-1.40;70.00
50349;BME280;36250;48.740;22.174;2023-02-13T00:11:21;102654.91;;;-1.41;69.96
50349;BME280;36250;48.740;22.174;2023-02-13T00:13:47;102652.47;;;-1.44;69.90
50349;BME280;36250;48.740;22.174;2023-02-13T00:16:12;102659.53;;;-1.43;69.78
50349;BME280;36250;48.740;22.174;2023-02-13T00:18:38;102655.03;;;-1.43;69.65
50349;BME280;36250;48.740;22.174;2023-02-13T00:21:10;102651.63;;;-1.45;69.97
50349;BME280;36250;48.740;22.174;2023-02-13T00:23:37;102663.28;;;-1.46;69.40
50349;BME280;36250;48.740;22.174;2023-02-13T00:26:10;102668.72;;;-1.47;70.12
50349;BME280;36250;48.740;22.174;2023-02-13T00:28:36;102667.34;;;-1.53;69.61
50349;BME280;36250;48.740;22.174;2023-02-13T00:31:07;102671.31;;;-1.58;70.19
50349;BME280;36250;48.740;22.174;2023-02-13T00:33:32;102665.97;;;-1.58;70.55
50349;BME280;36250;48.740;22.174;2023-02-13T00:36:13;102671.22;;;-1.57;70.13
50349;BME280;36250;48.740;22.174;2023-02-13T00:38:39;102671.53;;;-1.61;69.47
50349;BME280;36250;48.740;22.174;2023-02-13T00:41:05;102664.94;;;-1.68;69.75
50349;BME280;36250;48.740;22.174;2023-02-13T00:43:31;102674.28;;;-1.86;70.07
50349;BME280;36250;48.740;22.174;2023-02-13T00:45:56;102669.50;;;-2.07;70.45
50349;BME280;36250;48.740;22.174;2023-02-13T00:48:26;102667.38;;;-2.27;71.56
50349;BME280;36250;48.740;22.174;2023-02-13T00:50:51;102672.69;;;-2.39;71.87
50349;BME280;36250;48.740;22.174;2023-02-13T00:53:18;102674.28;;;-2.49;72.62
50349;BME280;36250;48.740;22.174;2023-02-13T00:55:43;102674.19;;;-2.60;72.76
50349;BME280;36250;48.740;22.174;2023-02-13T00:58:09;102677.72;;;-2.60;72.77
50349;BME280;36250;48.740;22.174;2023-02-13T01:00:34;102669.50;;;-2.57;72.61
50349;BME280;36250;48.740;22.174;2023-02-13T01:03:00;102667.59;;;-2.55;72.59
50349;BME280;36250;48.740;22.174;2023-02-13T01:05:25;102659.16;;;-2.49;73.39
50349;BME280;36250;48.740;22.174;2023-02-13T01:07:52;102650.09;;;-2.46;73.22
50349;BME280;36250;48.740;22.174;2023-02-13T01:10:17;102654.28;;;-2.42;72.41
50349;BME280;36250;48.740;22.174;2023-02-13T01:12:43;102649.34;;;-2.36;73.19
50349;BME280;36250;48.740;22.174;2023-02-13T01:15:08;102644.56;;;-2.31;72.57
50349;BME280;36250;48.740;22.174;2023-02-13T01:17:34;102654.03;;;-2.27;72.06
50349;BME280;36250;48.740;22.174;2023-02-13T01:19:59;102639.97;;;-2.29;72.37
50349;BME280;36250;48.740;22.174;2023-02-13T01:22:25;102647.31;;;-2.32;72.03
50349;BME280;36250;48.740;22.174;2023-02-13T01:24:50;102644.88;;;-2.35;72.36
50349;BME280;36250;48.740;22.174;2023-02-13T01:27:15;102650.63;;;-2.41;73.18
50349;BME280;36250;48.740;22.174;2023-02-13T01:29:41;102655.25;;;-2.95;73.35
50349;BME280;36250;48.740;22.174;2023-02-13T01:32:06;102644.31;;;-3.17;74.03
50349;BME280;36250;48.740;22.174;2023-02-13T01:34:32;102653.84;;;-3.13;73.76
50349;BME280;36250;48.740;22.174;2023-02-13T01:36:58;102649.25;;;-3.11;73.45
50349;BME280;36250;48.740;22.174;2023-02-13T01:39:23;102650.94;;;-3.10;73.59
50349;BME280;36250;48.740;22.174;2023-02-13T01:41:48;102650.56;;;-3.04;73.35
50349;BME280;36250;48.740;22.174;2023-02-13T01:44:52;102643.31;;;-3.02;73.76
50349;BME280;36250;48.740;22.174;2023-02-13T01:47:27;102639.69;;;-3.01;73.16
50349;BME280;36250;48.740;22.174;2023-02-13T01:52:54;102642.91;;;-2.96;72.97
50349;BME280;36250;48.740;22.174;2023-02-13T01:55:23;102637.16;;;-2.90;73.82
50349;BME280;36250;48.740;22.174;2023-02-13T01:57:58;102642.28;;;-2.87;73.88
50349;BME280;36250;48.740;22.174;2023-02-13T02:00:24;102643.34;;;-2.90;74.05
50349;BME280;36250;48.740;22.174;2023-02-13T02:02:54;102638.41;;;-3.08;73.34
50349;BME280;36250;48.740;22.174;2023-02-13T02:05:26;102638.25;;;-3.19;74.63
50349;BME280;36250;48.740;22.174;2023-02-13T02:07:54;102653.50;;;-3.21;74.63
50349;BME280;36250;48.740;22.174;2023-02-13T02:10:21;102634.53;;;-3.17;74.28
50349;BME280;36250;48.740;22.174;2023-02-13T02:13:05;102644.69;;;-3.09;74.36
50349;BME280;36250;48.740;22.174;2023-02-13T02:15:31;102641.81;;;-3.06;73.76
50349;BME280;36250;48.740;22.174;2023-02-13T02:17:57;102635.19;;;-3.13;73.89
50349;BME280;36250;48.740;22.174;2023-02-13T02:20:44;102649.25;;;-3.11;74.57
50349;BME280;36250;48.740;22.174;2023-02-13T02:23:41;102644.38;;;-3.05;73.67
50349;BME280;36250;48.740;22.174;2023-02-13T02:29:33;102649.94;;;-2.95;74.34
50349;BME280;36250;48.740;22.174;2023-02-13T02:32:02;102650.16;;;-2.86;74.82
50349;BME280;36250;48.740;22.174;2023-02-13T02:42:19;102638.59;;;-3.11;74.37
50349;BME280;36250;48.740;22.174;2023-02-13T02:44:59;102638.59;;;-3.11;73.47
50349;BME280;36250;48.740;22.174;2023-02-13T02:50:24;102637.09;;;-3.15;74.11
50349;BME280;36250;48.740;22.174;2023-02-13T02:55:49;102642.97;;;-3.10;74.47
50349;BME280;36250;48.740;22.174;2023-02-13T03:01:22;102634.72;;;-3.73;74.66
50349;BME280;36250;48.740;22.174;2023-02-13T03:04:15;102639.00;;;-3.71;74.78
50349;BME280;36250;48.740;22.174;2023-02-13T03:07:07;102637.13;;;-3.83;75.00
50349;BME280;36250;48.740;22.174;2023-02-13T03:09:39;102642.28;;;-3.94;76.09
50349;BME280;36250;48.740;22.174;2023-02-13T03:12:29;102641.88;;;-3.88;76.27
50349;BME280;36250;48.740;22.174;2023-02-13T03:15:16;102641.81;;;-3.86;77.04
50349;BME280;36250;48.740;22.174;2023-02-13T03:17:41;102647.22;;;-3.88;76.42
50349;BME280;36250;48.740;22.174;2023-02-13T03:21:08;102640.56;;;-3.95;76.60
50349;BME280;36250;48.740;22.174;2023-02-13T03:24:00;102634.88;;;-3.89;76.12
50349;BME280;36250;48.740;22.174;2023-02-13T03:26:39;102631.91;;;-3.84;76.14
50349;BME280;36250;48.740;22.174;2023-02-13T03:32:19;102616.78;;;-3.70;75.73
50349;BME280;36250;48.740;22.174;2023-02-13T03:34:51;102629.72;;;-3.78;75.50
50349;BME280;36250;48.740;22.174;2023-02-13T03:37:41;102635.97;;;-3.79;76.78
50349;BME280;36250;48.740;22.174;2023-02-13T03:40:31;102626.13;;;-3.77;76.96
50349;BME280;36250;48.740;22.174;2023-02-13T03:43:07;102624.56;;;-3.67;76.58
50349;BME280;36250;48.740;22.174;2023-02-13T03:45:37;102635.47;;;-3.57;77.10
50349;BME280;36250;48.740;22.174;2023-02-13T03:48:35;102627.75;;;-3.62;75.93
50349;BME280;36250;48.740;22.174;2023-02-13T03:51:33;102627.38;;;-3.56;76.29
50349;BME280;36250;48.740;22.174;2023-02-13T03:54:05;102631.22;;;-3.47;76.20
50349;BME280;36250;48.740;22.174;2023-02-13T03:56:34;102625.41;;;-3.40;75.97
50349;BME280;36250;48.740;22.174;2023-02-13T03:59:28;102638.88;;;-3.28;75.54
50349;BME280;36250;48.740;22.174;2023-02-13T04:02:07;102645.13;;;-3.29;75.83
50349;BME280;36250;48.740;22.174;2023-02-13T04:04:57;102648.22;;;-3.36;75.38
50349;BME280;36250;48.740;22.174;2023-02-13T04:07:24;102641.72;;;-3.32;76.02
50349;BME280;36250;48.740;22.174;2023-02-13T04:10:16;102639.81;;;-3.29;75.63
50349;BME280;36250;48.740;22.174;2023-02-13T04:18:14;102643.94;;;-3.11;73.98
50349;BME280;36250;48.740;22.174;2023-02-13T04:20:41;102639.34;;;-3.09;74.62
50349;BME280;36250;48.740;22.174;2023-02-13T04:23:07;102636.28;;;-3.03;74.98
50349;BME280;36250;48.740;22.174;2023-02-13T04:25:35;102642.91;;;-2.96;74.91
50349;BME280;36250;48.740;22.174;2023-02-13T04:28:01;102650.59;;;-2.92;74.65
50349;BME280;36250;48.740;22.174;2023-02-13T04:30:27;102642.06;;;-2.84;74.95
50349;BME280;36250;48.740;22.174;2023-02-13T04:32:52;102637.41;;;-2.68;73.82
50349;BME280;36250;48.740;22.174;2023-02-13T04:35:18;102649.88;;;-2.56;73.53
50349;BME280;36250;48.740;22.174;2023-02-13T04:37:43;102647.63;;;-2.49;74.09
50349;BME280;36250;48.740;22.174;2023-02-13T04:40:09;102641.22;;;-2.47;73.92
50349;BME280;36250;48.740;22.174;2023-02-13T04:42:34;102644.88;;;-2.48;74.03
50349;BME280;36250;48.740;22.174;2023-02-13T04:44:59;102647.53;;;-2.48;74.62
50349;BME280;36250;48.740;22.174;2023-02-13T04:47:25;102653.81;;;-2.49;75.07
50349;BME280;36250;48.740;22.174;2023-02-13T04:49:50;102651.28;;;-2.38;75.28
50349;BME280;36250;48.740;22.174;2023-02-13T04:52:15;102663.84;;;-2.27;74.80
50349;BME280;36250;48.740;22.174;2023-02-13T04:54:41;102662.69;;;-2.23;74.69
50349;BME280;36250;48.740;22.174;2023-02-13T04:57:06;102665.56;;;-2.14;74.27
50349;BME280;36250;48.740;22.174;2023-02-13T04:59:31;102665.75;;;-2.04;74.23
50349;BME280;36250;48.740;22.174;2023-02-13T05:01:57;102668.09;;;-2.00;73.80
50349;BME280;36250;48.740;22.174;2023-02-13T05:04:23;102664.47;;;-1.98;74.91
50349;BME280;36250;48.740;22.174;2023-02-13T05:06:49;102660.94;;;-1.86;74.71
50349;BME280;36250;48.740;22.174;2023-02-13T05:09:14;102656.94;;;-1.81;74.47
50349;BME280;36250;48.740;22.174;2023-02-13T05:11:40;102656.13;;;-1.81;74.03
50349;BME280;36250;48.740;22.174;2023-02-13T05:14:05;102660.06;;;-1.74;74.66
50349;BME280;36250;48.740;22.174;2023-02-13T05:16:30;102661.19;;;-1.66;74.26
50349;BME280;36250;48.740;22.174;2023-02-13T05:18:56;102654.56;;;-1.60;73.59
50349;BME280;36250;48.740;22.174;2023-02-13T05:21:21;102654.13;;;-1.54;74.37
50349;BME280;36250;48.740;22.174;2023-02-13T05:24:05;102651.38;;;-1.42;73.71
50349;BME280;36250;48.740;22.174;2023-02-13T05:26:31;102647.41;;;-1.36;73.35
50349;BME280;36250;48.740;22.174;2023-02-13T05:28:56;102652.06;;;-1.27;73.23
50349;BME280;36250;48.740;22.174;2023-02-13T05:31:40;102655.03;;;-1.19;73.67
50349;BME280;36250;48.740;22.174;2023-02-13T05:34:05;102656.41;;;-1.13;73.28
50349;BME280;36250;48.740;22.174;2023-02-13T05:36:30;102666.75;;;-1.09;72.78
50349;BME280;36250;48.740;22.174;2023-02-13T05:38:56;102675.16;;;-1.02;72.91
50349;BME280;36250;48.740;22.174;2023-02-13T05:41:21;102674.69;;;-0.96;73.44
50349;BME280;36250;48.740;22.174;2023-02-13T05:43:46;102675.44;;;-0.94;72.73
50349;BME280;36250;48.740;22.174;2023-02-13T05:46:12;102671.53;;;-0.90;72.91
50349;BME280;36250;48.740;22.174;2023-02-13T05:48:37;102680.94;;;-0.85;72.55
50349;BME280;36250;48.740;22.174;2023-02-13T05:51:03;102682.16;;;-0.78;72.08
50349;BME280;36250;48.740;22.174;2023-02-13T05:53:29;102683.41;;;-0.71;72.15
50349;BME280;36250;48.740;22.174;2023-02-13T05:55:54;102678.56;;;-0.66;72.18
50349;BME280;36250;48.740;22.174;2023-02-13T05:58:20;102683.47;;;-0.59;72.38
50349;BME280;36250;48.740;22.174;2023-02-13T06:00:46;102687.59;;;-0.55;71.89
50349;BME280;36250;48.740;22.174;2023-02-13T06:03:12;102690.91;;;-0.52;71.91
50349;BME280;36250;48.740;22.174;2023-02-13T06:05:37;102686.28;;;-0.50;71.70
50349;BME280;36250;48.740;22.174;2023-02-13T06:08:03;102685.91;;;-0.45;71.82
50349;BME280;36250;48.740;22.174;2023-02-13T06:10:28;102689.31;;;-0.43;71.87
50349;BME280;36250;48.740;22.174;2023-02-13T06:12:53;102701.38;;;-0.38;71.24
50349;BME280;36250;48.740;22.174;2023-02-13T06:15:19;102697.84;;;-0.38;70.66
50349;BME280;36250;48.740;22.174;2023-02-13T06:17:44;102688.50;;;-0.33;70.84
50349;BME280;36250;48.740;22.174;2023-02-13T06:20:10;102696.91;;;-0.26;70.97
50349;BME280;36250;48.740;22.174;2023-02-13T06:22:35;102686.44;;;-0.18;70.84
50349;BME280;36250;48.740;22.174;2023-02-13T06:25:00;102678.28;;;-0.17;71.26
50349;BME280;36250;48.740;22.174;2023-02-13T06:27:26;102674.53;;;-0.14;71.05
50349;BME280;36250;48.740;22.174;2023-02-13T06:29:51;102680.50;;;-0.11;70.61
50349;BME280;36250;48.740;22.174;2023-02-13T06:32:16;102682.56;;;-0.14;70.41
50349;BME280;36250;48.740;22.174;2023-02-13T06:34:42;102701.28;;;-0.25;70.71
50349;BME280;36250;48.740;22.174;2023-02-13T06:37:07;102693.72;;;-0.42;70.13
50349;BME280;36250;48.740;22.174;2023-02-13T06:39:32;102685.41;;;-0.50;71.84
50349;BME280;36250;48.740;22.174;2023-02-13T06:41:58;102692.41;;;-0.37;72.05
50349;BME280;36250;48.740;22.174;2023-02-13T06:44:23;102679.97;;;-0.27;71.32
50349;BME280;36250;48.740;22.174;2023-02-13T06:46:48;102696.03;;;-0.27;71.89
50349;BME280;36250;48.740;22.174;2023-02-13T06:49:14;102685.97;;;-0.23;71.77
50349;BME280;36250;48.740;22.174;2023-02-13T06:51:39;102699.34;;;-0.23;71.71
50349;BME280;36250;48.740;22.174;2023-02-13T06:54:04;102699.84;;;-0.18;72.18
50349;BME280;36250;48.740;22.174;2023-02-13T06:56:30;102697.75;;;-0.26;72.06
50349;BME280;36250;48.740;22.174;2023-02-13T06:58:56;102685.97;;;-0.23;72.99
50349;BME280;36250;48.740;22.174;2023-02-13T07:01:22;102688.53;;;-0.11;73.21
50349;BME280;36250;48.740;22.174;2023-02-13T07:03:47;102695.34;;;-0.07;72.96
50349;BME280;36250;48.740;22.174;2023-02-13T07:06:19;102697.66;;;-0.02;72.87
50349;BME280;36250;48.740;22.174;2023-02-13T07:08:45;102697.91;;;-0.05;72.81
50349;BME280;36250;48.740;22.174;2023-02-13T07:11:18;102688.91;;;-0.15;73.18
50349;BME280;36250;48.740;22.174;2023-02-13T07:13:43;102693.25;;;-0.25;73.90
50349;BME280;36250;48.740;22.174;2023-02-13T07:16:08;102690.81;;;-0.28;73.54
50349;BME280;36250;48.740;22.174;2023-02-13T07:18:34;102689.59;;;-0.35;74.00
50349;BME280;36250;48.740;22.174;2023-02-13T07:20:59;102693.47;;;-0.39;74.43
50349;BME280;36250;48.740;22.174;2023-02-13T07:23:24;102699.41;;;-0.47;73.72
50349;BME280;36250;48.740;22.174;2023-02-13T07:25:50;102696.13;;;-0.50;73.87
50349;BME280;36250;48.740;22.174;2023-02-13T07:28:15;102690.75;;;-0.50;73.35
50349;BME280;36250;48.740;22.174;2023-02-13T07:30:40;102688.38;;;-0.42;73.95
50349;BME280;36250;48.740;22.174;2023-02-13T07:33:06;102694.16;;;-0.48;73.26
50349;BME280;36250;48.740;22.174;2023-02-13T07:35:31;102704.19;;;-0.28;73.94
50349;BME280;36250;48.740;22.174;2023-02-13T07:37:57;102698.63;;;-0.14;71.88
50349;BME280;36250;48.740;22.174;2023-02-13T07:40:24;102700.69;;;-0.07;72.12
50349;BME280;36250;48.740;22.174;2023-02-13T07:42:49;102710.56;;;0.15;71.49
50349;BME280;36250;48.740;22.174;2023-02-13T07:45:15;102708.25;;;0.33;71.05
50349;BME280;36250;48.740;22.174;2023-02-13T07:47:41;102701.66;;;0.48;70.47
50349;BME280;36250;48.740;22.174;2023-02-13T07:50:07;102700.91;;;0.57;70.05
50349;BME280;36250;48.740;22.174;2023-02-13T07:52:32;102696.88;;;0.62;69.55
50349;BME280;36250;48.740;22.174;2023-02-13T07:54:58;102704.69;;;0.65;69.28
50349;BME280;36250;48.740;22.174;2023-02-13T07:57:23;102703.72;;;0.55;69.14
50349;BME280;36250;48.740;22.174;2023-02-13T07:59:48;102701.16;;;0.54;69.72
50349;BME280;36250;48.740;22.174;2023-02-13T08:02:15;102700.53;;;0.73;70.02
50349;BME280;36250;48.740;22.174;2023-02-13T08:04:41;102703.00;;;0.96;69.46
50349;BME280;36250;48.740;22.174;2023-02-13T08:07:10;102694.81;;;1.09;68.50
50349;BME280;36250;48.740;22.174;2023-02-13T08:09:35;102699.00;;;1.22;68.61
50349;BME280;36250;48.740;22.174;2023-02-13T08:12:19;102698.31;;;1.41;67.30
50349;BME280;36250;48.740;22.174;2023-02-13T08:14:44;102704.69;;;1.61;67.37
50349;BME280;36250;48.740;22.174;2023-02-13T08:17:10;102703.22;;;1.77;66.52
50349;BME280;36250;48.740;22.174;2023-02-13T08:19:35;102700.00;;;1.83;66.72
50349;BME280;36250;48.740;22.174;2023-02-13T08:22:00;102703.69;;;1.82;67.27
50349;BME280;36250;48.740;22.174;2023-02-13T08:24:26;102697.91;;;1.87;66.90
50349;BME280;36250;48.740;22.174;2023-02-13T08:26:51;102702.66;;;2.04;65.67
50349;BME280;36250;48.740;22.174;2023-02-13T08:29:16;102708.94;;;2.14;65.21
50349;BME280;36250;48.740;22.174;2023-02-13T08:31:42;102698.97;;;2.35;64.80
50349;BME280;36250;48.740;22.174;2023-02-13T08:34:07;102695.50;;;2.44;64.62
50349;BME280;36250;48.740;22.174;2023-02-13T08:36:33;102689.28;;;2.53;64.04
50349;BME280;36250;48.740;22.174;2023-02-13T08:38:58;102679.41;;;2.63;62.40
50349;BME280;36250;48.740;22.174;2023-02-13T08:41:24;102685.09;;;2.70;62.19
50349;BME280;36250;48.740;22.174;2023-02-13T08:43:49;102683.69;;;2.85;61.43
50349;BME280;36250;48.740;22.174;2023-02-13T08:46:16;102681.88;;;2.95;61.49
50349;BME280;36250;48.740;22.174;2023-02-13T08:48:41;102678.91;;;2.98;60.53
50349;BME280;36250;48.740;22.174;2023-02-13T08:51:08;102681.44;;;3.00;61.18
50349;BME280;36250;48.740;22.174;2023-02-13T08:53:35;102677.47;;;3.13;60.62
50349;BME280;36250;48.740;22.174;2023-02-13T08:56:00;102680.16;;;3.23;60.30
50349;BME280;36250;48.740;22.174;2023-02-13T08:58:26;102672.09;;;3.13;60.40
50349;BME280;36250;48.740;22.174;2023-02-13T09:00:51;102670.13;;;3.15;60.62
50349;BME280;36250;48.740;22.174;2023-02-13T09:03:17;102660.78;;;3.19;61.29
50349;BME280;36250;48.740;22.174;2023-02-13T09:05:42;102654.53;;;3.28;60.67
50349;BME280;36250;48.740;22.174;2023-02-13T09:08:08;102652.25;;;3.33;60.39
50349;BME280;36250;48.740;22.174;2023-02-13T09:10:36;102649.72;;;3.42;60.69
50349;BME280;36250;48.740;22.174;2023-02-13T09:13:02;102646.84;;;3.53;60.48
50349;BME280;36250;48.740;22.174;2023-02-13T09:15:29;102644.88;;;3.64;59.61
50349;BME280;36250;48.740;22.174;2023-02-13T09:17:54;102646.81;;;3.72;59.86
50349;BME280;36250;48.740;22.174;2023-02-13T09:20:19;102663.22;;;3.88;59.25
50349;BME280;36250;48.740;22.174;2023-02-13T09:22:45;102659.63;;;3.97;58.48
50349;BME280;36250;48.740;22.174;2023-02-13T09:25:10;102654.66;;;4.02;59.07
50349;BME280;36250;48.740;22.174;2023-02-13T09:27:36;102650.38;;;4.09;58.58
50349;BME280;36250;48.740;22.174;2023-02-13T09:30:07;102648.59;;;4.27;58.91
50349;BME280;36250;48.740;22.174;2023-02-13T09:32:33;102651.25;;;4.37;57.95
50349;BME280;36250;48.740;22.174;2023-02-13T09:34:58;102650.78;;;4.41;57.10
50349;BME280;36250;48.740;22.174;2023-02-13T09:37:24;102645.69;;;4.38;57.07
50349;BME280;36250;48.740;22.174;2023-02-13T09:39:51;102644.41;;;4.42;57.20
50349;BME280;36250;48.740;22.174;2023-02-13T09:42:29;102652.50;;;4.60;56.94
50349;BME280;36250;48.740;22.174;2023-02-13T09:45:02;102659.22;;;4.56;55.89
50349;BME280;36250;48.740;22.174;2023-02-13T09:47:36;102641.59;;;4.61;57.25
50349;BME280;36250;48.740;22.174;2023-02-13T09:50:26;102638.59;;;4.82;55.23
50349;BME280;36250;48.740;22.174;2023-02-13T09:52:54;102634.50;;;4.78;55.23
50349;BME280;36250;48.740;22.174;2023-02-13T09:55:25;102634.53;;;4.51;54.05
50349;BME280;36250;48.740;22.174;2023-02-13T09:58:06;102639.75;;;4.35;55.49
50349;BME280;36250;48.740;22.174;2023-02-13T10:00:39;102639.78;;;4.52;54.89
50349;BME280;36250;48.740;22.174;2023-02-13T10:03:26;102644.59;;;4.31;54.91
50349;BME280;36250;48.740;22.174;2023-02-13T10:14:16;102616.44;;;4.16;55.09
50349;BME280;36250;48.740;22.174;2023-02-13T10:16:50;102623.72;;;4.33;54.18
50349;BME280;36250;48.740;22.174;2023-02-13T10:19:31;102620.13;;;4.15;54.65
50349;BME280;36250;48.740;22.174;2023-02-13T10:22:04;102624.50;;;4.16;54.87
50349;BME280;36250;48.740;22.174;2023-02-13T10:24:47;102620.28;;;4.41;55.15
50349;BME280;36250;48.740;22.174;2023-02-13T10:27:22;102616.13;;;4.46;54.45
50349;BME280;36250;48.740;22.174;2023-02-13T10:33:04;102612.44;;;4.65;54.72
50349;BME280;36250;48.740;22.174;2023-02-13T10:36:02;102607.75;;;4.49;54.33
50349;BME280;36250;48.740;22.174;2023-02-13T10:38:31;102609.03;;;4.45;54.50
50349;BME280;36250;48.740;22.174;2023-02-13T10:49:54;102592.47;;;4.58;53.97
50349;BME280;36250;48.740;22.174;2023-02-13T10:58:14;102591.53;;;4.32;54.68
50349;BME280;36250;48.740;22.174;2023-02-13T11:03:19;102586.31;;;4.30;54.57
50349;BME280;36250;48.740;22.174;2023-02-13T11:05:46;102580.19;;;4.28;54.29
50349;BME280;36250;48.740;22.174;2023-02-13T11:08:37;102565.88;;;4.45;54.68
50349;BME280;36250;48.740;22.174;2023-02-13T11:11:29;102569.16;;;4.67;54.39
50349;BME280;36250;48.740;22.174;2023-02-13T11:16:38;102566.66;;;5.08;54.05
50349;BME280;36250;48.740;22.174;2023-02-13T11:19:04;102561.94;;;5.10;53.88
50349;BME280;36250;48.740;22.174;2023-02-13T11:21:33;102567.34;;;4.93;52.91
50349;BME280;36250;48.740;22.174;2023-02-13T11:24:00;102563.50;;;4.95;53.05
50349;BME280;36250;48.740;22.174;2023-02-13T11:26:31;102560.03;;;5.03;53.52
50349;BME280;36250;48.740;22.174;2023-02-13T11:28:59;102567.97;;;5.04;52.51
50349;BME280;36250;48.740;22.174;2023-02-13T11:31:30;102560.47;;;5.16;52.73
50349;BME280;36250;48.740;22.174;2023-02-13T11:33:57;102557.41;;;5.11;52.92
50349;BME280;36250;48.740;22.174;2023-02-13T11:39:02;102562.03;;;4.65;54.32
50349;BME280;36250;48.740;22.174;2023-02-13T11:41:36;102564.06;;;4.63;53.67
50349;BME280;36250;48.740;22.174;2023-02-13T11:44:04;102566.97;;;4.52;53.81
50349;BME280;36250;48.740;22.174;2023-02-13T11:46:42;102560.63;;;4.26;54.93
50349;BME280;36250;48.740;22.174;2023-02-13T11:49:19;102550.38;;;4.12;55.58
50349;BME280;36250;48.740;22.174;2023-02-13T11:51:51;102556.78;;;4.02;56.31
50349;BME280;36250;48.740;22.174;2023-02-13T11:57:19;102547.63;;;3.94;56.47
50349;BME280;36250;48.740;22.174;2023-02-13T11:59:47;102554.31;;;3.90;57.82
50349;BME280;36250;48.740;22.174;2023-02-13T12:02:17;102550.06;;;3.88;58.19
50349;BME280;36250;48.740;22.174;2023-02-13T12:04:44;102550.66;;;3.82;57.68
50349;BME280;36250;48.740;22.174;2023-02-13T12:09:52;102551.25;;;3.76;57.22
50349;BME280;36250;48.740;22.174;2023-02-13T12:12:46;102544.31;;;3.73;58.63
50349;BME280;36250;48.740;22.174;2023-02-13T12:15:20;102543.25;;;3.84;58.43
50349;BME280;36250;48.740;22.174;2023-02-13T12:17:49;102539.25;;;3.97;57.81
50349;BME280;36250;48.740;22.174;2023-02-13T12:20:19;102539.47;;;4.04;57.63
50349;BME280;36250;48.740;22.174;2023-02-13T12:28:15;102526.16;;;4.47;56.51
50349;BME280;36250;48.740;22.174;2023-02-13T12:39:25;102521.63;;;4.03;57.49
50349;BME280;36250;48.740;22.174;2023-02-13T12:47:55;102522.09;;;4.16;58.02
50349;BME280;36250;48.740;22.174;2023-02-13T12:53:43;102518.75;;;4.49;57.25
50349;BME280;36250;48.740;22.174;2023-02-13T12:58:56;102513.56;;;4.74;56.61
50349;BME280;36250;48.740;22.174;2023-02-13T13:13:22;102508.25;;;4.29;56.96
50349;BME280;36250;48.740;22.174;2023-02-13T13:16:08;102513.50;;;4.30;57.13
50349;BME280;36250;48.740;22.174;2023-02-13T13:21:29;102511.25;;;4.26;57.74
50349;BME280;36250;48.740;22.174;2023-02-13T13:24:51;102510.63;;;4.14;57.79
50349;BME280;36250;48.740;22.174;2023-02-13T13:27:27;102501.16;;;4.10;57.78
50349;BME280;36250;48.740;22.174;2023-02-13T13:29:57;102501.75;;;4.04;57.83
50349;BME280;36250;48.740;22.174;2023-02-13T13:32:23;102495.59;;;4.12;58.17
50349;BME280;36250;48.740;22.174;2023-02-13T13:34:50;102483.69;;;4.14;57.73
50349;BME280;36250;48.740;22.174;2023-02-13T13:37:27;102493.69;;;4.22;57.63
50349;BME280;36250;48.740;22.174;2023-02-13T13:42:58;102491.66;;;4.06;57.80
50349;BME280;36250;48.740;22.174;2023-02-13T13:51:26;102508.06;;;3.95;59.18
50349;BME280;36250;48.740;22.174;2023-02-13T13:56:23;102493.78;;;3.85;59.30
50349;BME280;36250;48.740;22.174;2023-02-13T13:58:49;102487.78;;;3.73;59.55
50349;BME280;36250;48.740;22.174;2023-02-13T14:04:01;102484.63;;;3.78;59.69
50349;BME280;36250;48.740;22.174;2023-02-13T14:14:51;102489.31;;;3.49;60.84
50349;BME280;36250;48.740;22.174;2023-02-13T14:20:29;102483.91;;;3.49;60.98
50349;BME280;36250;48.740;22.174;2023-02-13T14:23:50;102487.13;;;3.52;60.65
50349;BME280;36250;48.740;22.174;2023-02-13T14:28:35;102446.16;;;3.58;60.45
50349;BME280;36250;48.740;22.174;2023-02-13T14:31:13;102450.97;;;3.64;61.08
50349;BME280;36250;48.740;22.174;2023-02-13T14:33:41;102450.75;;;3.75;61.43
50349;BME280;36250;48.740;22.174;2023-02-13T14:36:19;102450.53;;;3.86;60.89
50349;BME280;36250;48.740;22.174;2023-02-13T14:38:55;102444.25;;;3.95;59.69
50349;BME280;36250;48.740;22.174;2023-02-13T14:44:31;102452.41;;;3.86;59.49
50349;BME280;36250;48.740;22.174;2023-02-13T14:47:34;102453.78;;;3.63;60.04
50349;BME280;36250;48.740;22.174;2023-02-13T14:49:58;102448.69;;;3.60;60.65
50349;BME280;36250;48.740;22.174;2023-02-13T14:52:28;102443.38;;;3.50;61.04
50349;BME280;36250;48.740;22.174;2023-02-13T14:55:03;102424.41;;;3.52;61.25
50349;BME280;36250;48.740;22.174;2023-02-13T14:57:44;102429.78;;;3.52;61.75
50349;BME280;36250;48.740;22.174;2023-02-13T15:00:23;102425.88;;;3.64;61.21
50349;BME280;36250;48.740;22.174;2023-02-13T15:02:58;102424.56;;;3.68;61.36
50349;BME280;36250;48.740;22.174;2023-02-13T15:05:32;102425.25;;;3.70;61.06
50349;BME280;36250;48.740;22.174;2023-02-13T15:08:07;102426.81;;;3.72;61.33
50349;BME280;36250;48.740;22.174;2023-02-13T15:13:35;102419.19;;;3.68;60.90
50349;BME280;36250;48.740;22.174;2023-02-13T15:16:08;102414.50;;;3.70;60.52
50349;BME280;36250;48.740;22.174;2023-02-13T15:18:43;102408.03;;;3.63;60.33
50349;BME280;36250;48.740;22.174;2023-02-13T15:21:18;102422.09;;;3.57;61.41
50349;BME280;36250;48.740;22.174;2023-02-13T15:23:48;102432.47;;;3.52;61.76
50349;BME280;36250;48.740;22.174;2023-02-13T15:26:22;102432.94;;;3.47;62.67
50349;BME280;36250;48.740;22.174;2023-02-13T15:29:04;102422.91;;;3.40;62.22